.
WxDataArchive / Data Records for 2008-07-19
2008-07-18 July 2008 2008-07-20

Data Records for Saturday, 19 July 2008

Time	Temp	Chill	HIndex	Humid	Dewpt	 Wind 	HiWind	WindDir	Rain 	Barom 
-----	----	-----	------	-----	-----	------	------	-------	-----	----- 
00:00	76.3	76.3	78.0	68	64.9	0	1	248	0.00	29.908 
00:05	76.3	76.3	78.0	68	64.9	0	0	---	0.00	29.910 
00:10	76.3	76.3	78.0	68	64.9	0	1	248	0.00	29.909 
00:15	76.3	76.3	78.0	68	64.9	0	1	248	0.00	29.909 
00:20	76.3	76.3	78.0	68	64.9	0	0	---	0.00	29.909 
00:25	76.3	76.3	78.0	68	64.9	0	0	---	0.00	29.907 
00:30	76.3	76.3	78.1	67	64.5	0	1	248	0.00	29.908 
00:35	76.3	76.3	78.0	68	64.9	0	1	248	0.00	29.908 
00:40	76.3	76.3	78.1	67	64.5	0	0	---	0.00	29.908 
00:45	76.3	76.3	78.1	67	64.5	0	1	248	0.00	29.907 
00:50	76.3	76.3	78.1	67	64.5	0	1	248	0.00	29.905 
00:55	76.3	76.3	78.0	68	64.9	0	0	---	0.00	29.905 
01:00	76.1	76.1	77.8	68	64.8	0	1	248	0.00	29.905 
01:05	76.0	76.0	77.7	68	64.7	0	0	---	0.00	29.903 
01:10	75.8	75.8	77.6	68	64.5	0	0	---	0.00	29.903 
01:15	75.8	75.8	77.6	68	64.5	0	0	---	0.00	29.904 
01:20	75.6	75.6	77.4	68	64.3	0	1	248	0.00	29.903 
01:25	75.6	75.6	77.3	69	64.7	0	0	---	0.00	29.903 
01:30	75.6	75.6	77.3	69	64.7	0	0	---	0.00	29.902 
01:35	75.4	75.4	77.1	69	64.5	0	0	---	0.00	29.902 
01:40	75.3	75.3	77.0	69	64.4	0	0	---	0.00	29.902 
01:45	75.3	75.3	77.0	69	64.4	0	1	248	0.00	29.901 
01:50	75.3	75.3	77.0	69	64.4	0	1	248	0.00	29.900 
01:55	75.3	75.3	77.0	69	64.4	0	1	248	0.00	29.899 
02:00	75.3	75.3	77.0	69	64.4	0	1	248	0.00	29.899 
02:05	75.3	75.3	77.1	68	64.0	0	1	248	0.00	29.898 
02:10	75.3	75.3	77.0	69	64.4	0	0	---	0.00	29.894 
02:15	75.3	75.3	77.0	69	64.4	0	0	---	0.00	29.892 
02:20	75.1	75.1	76.9	69	64.2	0	0	---	0.00	29.893 
02:25	74.9	74.9	74.9	69	64.0	0	0	---	0.00	29.894 
02:30	74.7	74.7	74.7	69	63.8	0	0	---	0.00	29.895 
02:35	74.6	74.6	74.6	70	64.2	0	0	---	0.00	29.893 
02:40	74.4	74.4	74.4	70	64.0	0	0	---	0.00	29.892 
02:45	74.2	74.2	74.2	71	64.2	0	1	248	0.00	29.892 
02:50	74.0	74.0	74.0	71	64.0	0	0	---	0.00	29.892 
02:55	73.9	73.9	73.9	72	64.3	0	0	---	0.00	29.895 
03:00	73.7	73.7	73.7	73	64.5	0	0	---	0.00	29.896 
03:05	73.5	73.5	73.5	73	64.3	0	0	---	0.00	29.896 
03:10	73.2	73.2	73.2	74	64.4	0	0	---	0.00	29.897 
03:15	73.0	73.0	73.0	75	64.6	0	0	---	0.00	29.899 
03:20	72.8	72.8	72.8	75	64.4	0	0	---	0.00	29.900 
03:25	72.5	72.5	72.5	76	64.5	0	0	---	0.00	29.897 
03:30	72.3	72.3	72.3	77	64.7	0	0	---	0.00	29.901 
03:35	72.1	72.1	72.1	77	64.5	0	0	---	0.00	29.899 
03:40	72.1	72.1	72.1	77	64.5	0	0	---	0.00	29.899 
03:45	72.0	72.0	72.0	78	64.8	0	0	---	0.00	29.898 
03:50	72.0	72.0	72.0	78	64.8	0	0	---	0.00	29.900 
03:55	71.8	71.8	71.8	79	64.9	0	0	---	0.00	29.902 
04:00	71.8	71.8	71.8	79	64.9	0	0	---	0.00	29.903 
04:05	72.0	72.0	72.0	79	65.1	0	0	---	0.00	29.904 
04:10	72.0	72.0	72.0	79	65.1	0	0	---	0.00	29.903 
04:15	72.0	72.0	72.0	79	65.1	0	0	---	0.00	29.902 
04:20	72.0	72.0	72.0	79	65.1	0	0	---	0.00	29.903 
04:25	72.1	72.1	72.1	79	65.2	0	0	---	0.00	29.904 
04:30	72.3	72.3	72.3	79	65.4	0	1	248	0.00	29.902 
04:35	72.3	72.3	72.3	79	65.4	0	0	---	0.00	29.900 
04:40	72.3	72.3	72.3	78	65.0	0	0	---	0.00	29.899 
04:45	72.5	72.5	72.5	78	65.2	0	0	---	0.00	29.898 
04:50	72.5	72.5	72.5	78	65.2	0	0	---	0.00	29.899 
04:55	72.3	72.3	72.3	78	65.0	0	0	---	0.00	29.899 
05:00	72.3	72.3	72.3	79	65.4	0	0	---	0.00	29.898 
05:05	72.3	72.3	72.3	79	65.4	0	0	---	0.00	29.900 
05:10	72.1	72.1	72.1	79	65.2	0	0	---	0.00	29.901 
05:15	72.1	72.1	72.1	79	65.2	0	0	---	0.00	29.902 
05:20	72.0	72.0	72.0	79	65.1	0	0	---	0.00	29.903 
05:25	72.0	72.0	72.0	80	65.5	0	0	---	0.00	29.905 
05:30	71.8	71.8	71.8	80	65.3	0	0	---	0.00	29.905 
05:35	71.6	71.6	71.6	80	65.1	0	0	---	0.00	29.905 
05:40	71.6	71.6	71.6	81	65.4	0	0	---	0.00	29.906 
05:45	71.5	71.5	71.5	81	65.4	0	0	---	0.00	29.905 
05:50	71.3	71.3	71.3	82	65.5	0	0	---	0.00	29.908 
05:55	71.1	71.1	71.1	82	65.3	0	0	---	0.00	29.909 
06:00	71.1	71.1	71.1	82	65.3	0	0	---	0.00	29.909 
06:05	71.1	71.1	71.1	82	65.3	0	0	---	0.00	29.911 
06:10	71.1	71.1	71.1	83	65.7	0	0	---	0.00	29.911 
06:15	71.3	71.3	71.3	82	65.5	0	0	---	0.00	29.914 
06:20	71.6	71.6	71.6	82	65.8	0	0	---	0.00	29.911 
06:25	71.8	71.8	71.8	82	66.0	0	1	248	0.00	29.910 
06:30	72.3	72.3	72.3	81	66.1	0	1	248	0.00	29.910 
06:35	72.7	72.7	72.7	80	66.2	0	1	248	0.00	29.909 
06:40	73.0	73.0	73.0	79	66.1	0	1	248	0.00	29.909 
06:45	73.3	73.3	73.3	78	66.0	0	1	248	0.00	29.910 
06:50	73.5	73.5	73.5	77	65.8	0	1	248	0.00	29.910 
06:55	73.5	73.5	73.5	77	65.8	0	1	248	0.00	29.908 
07:00	73.7	73.7	73.7	77	66.0	0	1	248	0.00	29.908 
07:05	73.7	73.7	73.7	77	66.0	0	1	248	0.00	29.909 
07:10	73.9	73.9	73.9	77	66.2	0	1	248	0.00	29.910 
07:15	73.9	73.9	73.9	77	66.2	0	1	248	0.00	29.910 
07:20	74.0	74.0	74.0	77	66.3	0	1	248	0.00	29.910 
07:25	74.6	74.6	74.6	77	66.9	0	1	248	0.00	29.909 
07:30	75.1	75.1	76.3	75	66.6	0	1	248	0.00	29.909 
07:35	75.6	75.6	77.0	73	66.3	0	2	248	0.00	29.908 
07:40	76.0	76.0	77.5	73	66.7	0	2	248	0.00	29.908 
07:45	76.1	76.1	77.6	73	66.8	0	2	248	0.00	29.907 
07:50	76.3	76.3	77.8	73	67.0	0	2	248	0.00	29.908 
07:55	76.5	76.5	78.1	73	67.2	0	1	248	0.00	29.908 
08:00	76.5	76.5	78.1	72	66.8	0	2	248	0.00	29.909 
08:05	76.7	76.7	78.4	72	67.0	0	2	248	0.00	29.910 
08:10	76.7	76.7	78.4	72	67.0	0	1	248	0.00	29.912 
08:15	76.8	76.8	78.5	71	66.7	0	2	248	0.00	29.912 
08:20	77.2	77.2	79.0	72	67.5	0	1	248	0.00	29.916 
08:25	77.7	77.7	79.7	72	67.9	0	1	248	0.00	29.917 
08:30	78.1	78.1	80.1	69	67.1	0	1	248	0.00	29.918 
08:35	77.9	77.9	79.9	69	66.9	0	2	248	0.00	29.919 
08:40	78.3	78.3	80.4	70	67.7	0	2	248	0.00	29.917 
08:45	79.2	79.2	81.6	69	68.1	0	1	248	0.00	29.916 
08:50	79.9	79.9	82.5	67	67.9	0	2	248	0.00	29.913 
08:55	80.7	80.7	83.4	65	67.8	0	2	248	0.00	29.910 
09:00	81.1	81.1	84.0	65	68.2	0	2	248	0.00	29.911 
09:05	81.6	81.6	84.4	63	67.8	0	2	270	0.00	29.915 
09:10	82.2	82.2	85.3	63	68.3	0	2	270	0.00	29.914 
09:15	82.6	82.6	85.7	62	68.2	0	2	270	0.00	29.912 
09:20	83.2	83.2	86.7	62	68.8	0	2	270	0.00	29.911 
09:25	83.4	83.4	87.0	62	69.0	0	1	270	0.00	29.907 
09:30	83.8	83.8	87.2	60	68.4	0	3	270	0.00	29.905 
09:35	83.8	83.8	86.9	59	67.9	1	3	248	0.00	29.905 
09:40	83.8	83.8	86.9	59	67.9	1	3	248	0.00	29.905 
09:45	84.1	84.1	87.2	58	67.7	1	4	248	0.00	29.906 
09:50	84.3	84.3	87.5	58	67.9	2	4	270	0.00	29.908 
09:55	84.1	84.1	86.7	56	66.7	2	5	270	0.00	29.908 
10:00	83.8	83.8	86.4	57	66.9	1	3	270	0.00	29.911 
10:05	83.6	83.6	86.1	57	66.7	1	5	248	0.00	29.915 
10:10	83.6	83.6	86.4	58	67.2	1	3	248	0.00	29.912 
10:15	83.8	83.8	86.9	59	67.9	0	2	248	0.00	29.911 
10:20	84.3	84.3	87.5	58	67.9	1	6	270	0.00	29.915 
10:25	84.9	84.9	87.6	55	66.9	2	6	270	0.00	29.918 
10:30	84.9	84.9	87.6	55	66.9	2	5	270	0.00	29.915 
10:35	85.3	85.3	88.5	56	67.8	2	4	270	0.00	29.915 
10:40	85.7	85.7	88.9	55	67.6	2	6	248	0.00	29.913 
10:45	85.9	85.9	88.9	54	67.3	2	4	270	0.00	29.914 
10:50	85.9	85.9	88.9	54	67.3	2	4	270	0.00	29.918 
10:55	85.7	85.7	88.6	54	67.1	2	5	270	0.00	29.917 
11:00	85.5	85.5	88.9	56	68.0	2	6	292	0.00	29.920 
11:05	85.1	85.1	87.9	55	67.1	1	4	292	0.00	29.923 
11:10	84.7	84.7	87.3	55	66.7	2	4	248	0.00	29.923 
11:15	84.5	84.5	87.3	56	67.0	1	3	248	0.00	29.924 
11:20	84.3	84.3	87.5	58	67.9	1	3	248	0.00	29.923 
11:25	84.0	84.0	87.0	58	67.6	1	3	270	0.00	29.922 
11:30	83.8	83.8	87.5	61	68.9	1	2	270	0.00	29.921 
11:35	82.6	82.6	86.6	66	70.1	0	3	338	0.01	29.922 
11:40	80.9	80.9	83.8	66	68.4	0	2	338	0.01	29.922 
11:45	80.3	80.3	83.2	68	68.8	1	3	270	0.00	29.923 
11:50	80.1	80.1	83.0	69	69.0	0	1	292	0.00	29.924 
11:55	80.1	80.1	83.1	70	69.4	1	3	292	0.00	29.923 
12:00	80.3	80.3	83.4	70	69.6	0	1	292	0.00	29.922 
12:05	80.7	80.7	84.1	70	70.0	0	2	292	0.00	29.920 
12:10	81.1	81.1	84.8	70	70.4	0	1	292	0.00	29.920 
12:15	81.2	81.2	84.5	67	69.2	1	3	270	0.00	29.918 
12:20	81.2	81.2	84.5	67	69.2	0	2	270	0.00	29.914 
12:25	81.2	81.2	84.3	66	68.7	0	2	270	0.00	29.913 
12:30	81.2	81.2	84.3	66	68.7	0	1	292	0.00	29.912 
12:35	81.1	81.1	84.3	67	69.1	0	1	292	0.00	29.912 
12:40	81.1	81.1	84.3	67	69.1	0	1	292	0.00	29.909 
12:45	81.1	81.1	84.3	67	69.1	0	1	292	0.00	29.908 
12:50	80.9	80.9	84.0	67	68.9	0	1	292	0.00	29.908 
12:55	80.7	80.7	84.0	69	69.6	0	1	292	0.00	29.908 
13:00	80.3	80.3	83.3	69	69.2	0	1	292	0.00	29.908 
13:05	79.9	79.9	82.8	70	69.2	0	1	292	0.00	29.907 
13:10	79.4	79.4	82.1	71	69.2	0	1	292	0.00	29.907 
13:15	78.8	78.8	81.3	73	69.4	0	2	292	0.00	29.909 
13:20	78.8	78.8	81.4	74	69.8	0	3	292	0.00	29.909 
13:25	78.6	78.6	81.0	73	69.2	0	2	292	0.00	29.908 
13:30	78.5	78.5	80.9	74	69.5	0	1	292	0.00	29.906 
13:35	78.5	78.5	81.0	76	70.3	0	3	292	0.00	29.905 
13:40	78.1	78.1	80.3	75	69.5	0	2	292	0.00	29.901 
13:45	77.9	77.9	80.0	76	69.7	0	1	292	0.00	29.899 
13:50	77.9	77.9	80.1	78	70.5	0	1	292	0.00	29.897 
13:55	77.9	77.9	80.1	77	70.1	0	1	292	0.00	29.897 
14:00	77.9	77.9	80.1	77	70.1	0	2	292	0.00	29.895 
14:05	77.9	77.9	80.1	77	70.1	0	1	292	0.00	29.895 
14:10	78.1	78.1	80.4	77	70.3	0	1	292	0.00	29.897 
14:15	78.3	78.3	80.7	77	70.5	0	1	292	0.00	29.897 
14:20	78.5	78.5	81.0	76	70.3	0	1	292	0.00	29.901 
14:25	78.5	78.5	81.0	76	70.3	0	1	292	0.00	29.901 
14:30	78.5	78.5	81.0	76	70.3	0	1	292	0.00	29.898 
14:35	78.6	78.6	81.2	76	70.4	0	2	292	0.00	29.900 
14:40	78.8	78.8	81.5	76	70.6	0	3	292	0.00	29.901 
14:45	78.6	78.6	81.2	77	70.8	1	3	45	0.00	29.896 
14:50	78.3	78.3	80.8	78	70.9	2	4	68	0.00	29.895 
14:55	77.9	77.9	80.1	79	70.8	2	3	90	0.00	29.895 
15:00	77.7	77.7	79.8	80	71.0	2	4	90	0.00	29.893 
15:05	77.6	77.6	79.6	80	70.9	1	2	68	0.00	29.893 
15:10	77.6	77.6	79.6	81	71.3	1	3	68	0.00	29.889 
15:15	77.7	77.7	79.8	80	71.0	1	3	68	0.00	29.888 
15:20	77.7	77.7	79.8	79	70.7	1	3	68	0.00	29.887 
15:25	77.7	77.7	79.7	77	69.9	1	3	68	0.00	29.887 
15:30	77.9	77.9	80.1	78	70.5	1	3	68	0.00	29.885 
15:35	78.1	78.1	80.4	78	70.7	1	4	68	0.00	29.884 
15:40	78.3	78.3	80.7	76	70.1	0	3	68	0.00	29.885 
15:45	78.3	78.3	80.6	75	69.7	1	4	68	0.00	29.886 
15:50	78.3	78.3	80.6	74	69.3	1	3	68	0.00	29.884 
15:55	78.5	78.5	80.9	74	69.5	1	2	68	0.00	29.882 
16:00	78.5	78.5	80.8	72	68.7	1	3	68	0.00	29.881 
16:05	78.6	78.6	80.9	71	68.4	1	3	68	0.00	29.879 
16:10	78.6	78.6	80.9	71	68.4	1	3	68	0.00	29.875 
16:15	78.5	78.5	80.8	71	68.3	1	4	90	0.00	29.869 
16:20	78.6	78.6	80.8	70	68.0	1	3	90	0.00	29.866 
16:25	78.6	78.6	80.8	69	67.6	1	4	90	0.00	29.864 
16:30	78.6	78.6	80.8	70	68.0	1	3	90	0.00	29.861 
16:35	78.5	78.5	80.8	71	68.3	0	2	90	0.00	29.861 
16:40	78.3	78.3	80.5	72	68.5	1	2	90	0.00	29.857 
16:45	78.3	78.3	80.6	73	68.9	1	3	90	0.00	29.853 
16:50	78.1	78.1	80.3	73	68.7	1	3	90	0.00	29.848 
16:55	78.5	78.5	80.9	73	69.1	1	3	90	0.00	29.838 
17:00	78.8	78.8	81.3	72	69.0	2	5	90	0.00	29.837 
17:05	78.6	78.6	81.0	72	68.8	1	4	90	0.00	29.836 
17:10	78.5	78.5	80.9	73	69.1	1	4	90	0.00	29.850 
17:15	77.4	77.4	79.2	81	71.1	2	5	248	0.18	29.877 
17:20	75.3	75.3	75.5	84	70.1	1	4	248	0.21	29.868 
17:25	74.0	74.0	74.0	88	70.2	0	2	248	0.02	29.865 
17:30	73.5	73.5	73.5	90	70.4	0	1	248	0.00	29.860 
17:35	73.3	73.3	73.3	91	70.5	0	1	248	0.00	29.856 
17:40	73.5	73.5	73.5	92	71.0	0	1	248	0.00	29.855 
17:45	73.7	73.7	73.7	92	71.2	0	1	248	0.00	29.858 
17:50	73.7	73.7	73.7	92	71.2	1	4	248	0.00	29.856 
17:55	73.5	73.5	73.5	92	71.0	1	4	135	0.00	29.856 
18:00	73.5	73.5	73.5	92	71.0	1	3	90	0.00	29.855 
18:05	73.5	73.5	73.5	92	71.0	1	5	90	0.00	29.851 
18:10	73.3	73.3	73.3	92	70.8	1	4	90	0.00	29.851 
18:15	73.2	73.2	73.2	92	70.7	1	3	112	0.00	29.852 
18:20	73.0	73.0	73.0	92	70.5	1	3	112	0.00	29.851 
18:25	73.0	73.0	73.0	92	70.5	1	2	90	0.00	29.851 
18:30	73.0	73.0	73.0	92	70.5	1	3	135	0.00	29.851 
18:35	72.8	72.8	72.8	92	70.3	0	1	90	0.00	29.851 
18:40	72.8	72.8	72.8	92	70.3	0	1	90	0.00	29.850 
18:45	72.8	72.8	72.8	92	70.3	0	1	90	0.00	29.850 
18:50	73.0	73.0	73.0	93	70.8	0	1	90	0.00	29.848 
18:55	73.0	73.0	73.0	93	70.8	0	1	90	0.00	29.850 
19:00	73.0	73.0	73.0	93	70.8	0	1	90	0.00	29.850 
19:05	73.0	73.0	73.0	93	70.8	0	3	90	0.00	29.849 
19:10	73.0	73.0	73.0	93	70.8	0	0	---	0.00	29.849 
19:15	73.2	73.2	73.2	93	71.0	0	0	---	0.00	29.847 
19:20	73.2	73.2	73.2	93	71.0	0	0	---	0.00	29.845 
19:25	73.0	73.0	73.0	93	70.8	0	1	90	0.00	29.845 
19:30	72.8	72.8	72.8	93	70.7	0	0	---	0.00	29.848 
19:35	72.7	72.7	72.7	93	70.6	0	0	---	0.00	29.849 
19:40	72.5	72.5	72.5	93	70.4	0	1	90	0.00	29.850 
19:45	72.5	72.5	72.5	93	70.4	0	0	---	0.00	29.851 
19:50	72.5	72.5	72.5	94	70.7	0	0	---	0.00	29.851 
19:55	72.5	72.5	72.5	94	70.7	0	1	90	0.00	29.851 
20:00	72.5	72.5	72.5	94	70.7	0	0	---	0.00	29.850 
20:05	72.3	72.3	72.3	94	70.5	0	1	90	0.00	29.846 
20:10	72.3	72.3	72.3	94	70.5	0	1	112	0.00	29.846 
20:15	72.1	72.1	72.1	94	70.3	0	1	112	0.00	29.841 
20:20	72.0	72.0	72.0	94	70.2	0	0	---	0.00	29.838 
20:25	72.0	72.0	72.0	94	70.2	0	0	---	0.00	29.836 
20:30	71.8	71.8	71.8	94	70.0	0	1	112	0.00	29.834 
20:35	71.8	71.8	71.8	94	70.0	0	0	---	0.00	29.835 
20:40	71.6	71.6	71.6	94	69.8	0	0	---	0.00	29.833 
20:45	71.6	71.6	71.6	94	69.8	0	0	---	0.00	29.834 
20:50	71.6	71.6	71.6	94	69.8	0	1	112	0.00	29.837 
20:55	71.6	71.6	71.6	94	69.8	0	0	---	0.00	29.838 
21:00	71.6	71.6	71.6	94	69.8	0	1	112	0.00	29.845 
21:05	71.6	71.6	71.6	94	69.8	0	1	112	0.00	29.844 
21:10	71.6	71.6	71.6	95	70.1	0	1	112	0.00	29.844 
21:15	71.5	71.5	71.5	94	69.7	0	1	112	0.00	29.845 
21:20	71.5	71.5	71.5	95	70.0	0	1	112	0.00	29.844 
21:25	71.5	71.5	71.5	95	70.0	0	1	112	0.00	29.842 
21:30	71.5	71.5	71.5	95	70.0	0	1	112	0.00	29.839 
21:35	71.5	71.5	71.5	95	70.0	0	2	112	0.00	29.837 
21:40	71.6	71.6	71.6	95	70.1	0	1	112	0.00	29.837 
21:45	71.6	71.6	71.6	95	70.1	0	2	202	0.00	29.838 
21:50	71.8	71.8	71.8	95	70.3	0	1	202	0.00	29.837 
21:55	71.8	71.8	71.8	95	70.3	0	1	202	0.00	29.834 
22:00	71.8	71.8	71.8	95	70.3	0	1	202	0.00	29.834 
22:05	71.8	71.8	71.8	95	70.3	0	1	202	0.00	29.833 
22:10	71.8	71.8	71.8	95	70.3	0	1	202	0.00	29.830 
22:15	72.0	72.0	72.0	95	70.5	0	0	---	0.00	29.833 
22:20	72.0	72.0	72.0	95	70.5	0	0	---	0.00	29.833 
22:25	72.0	72.0	72.0	95	70.5	0	1	202	0.00	29.829 
22:30	72.0	72.0	72.0	95	70.5	0	0	---	0.00	29.829 
22:35	72.0	72.0	72.0	95	70.5	0	1	202	0.00	29.829 
22:40	72.1	72.1	72.1	95	70.6	0	1	202	0.00	29.828 
22:45	72.1	72.1	72.1	95	70.6	0	1	202	0.00	29.827 
22:50	72.3	72.3	72.3	95	70.8	0	1	202	0.00	29.827 
22:55	72.3	72.3	72.3	95	70.8	0	1	202	0.00	29.824 
23:00	72.5	72.5	72.5	95	71.0	0	1	202	0.00	29.819 
23:05	72.5	72.5	72.5	95	71.0	0	1	202	0.00	29.823 
23:10	72.7	72.7	72.7	95	71.2	0	1	202	0.00	29.827 
23:15	72.7	72.7	72.7	95	71.2	0	2	202	0.00	29.824 
23:20	72.8	72.8	72.8	95	71.3	0	1	202	0.00	29.825 
23:25	72.8	72.8	72.8	95	71.3	0	1	202	0.00	29.824 
23:30	72.8	72.8	72.8	95	71.3	0	1	202	0.00	29.825 
23:35	72.8	72.8	72.8	95	71.3	0	1	202	0.00	29.825 
23:40	72.8	72.8	72.8	95	71.3	0	1	202	0.00	29.826 
23:45	73.0	73.0	73.0	95	71.5	0	2	202	0.00	29.832 
23:50	73.0	73.0	73.0	94	71.2	0	1	202	0.00	29.831 
23:55	73.2	73.2	73.2	94	71.4	0	1	202	0.00	29.831 

CoCoRaHS
IN-AL-39
A2 Web Hosting
Creative Commons License
GoDaddy
Look for:

loaded 2017-12-11 14:18:12 • last modified 2010-11-18 10:43:29
Privacy PolicyDisclaimer
• wx.awcolley.com is powered by PmWiki v.2002016 •
• all content (unless otherwise noted) © 2017 A W Colley